sensor_id;sensor_type;location;lat;lon;timestamp;P1;durP1;ratioP1;P2;durP2;ratioP2
73100;SDS011;61288;53.446;-2.266;2022-08-18T00:01:14;8.45;;;2.25;;
73100;SDS011;61288;53.446;-2.266;2022-08-18T00:03:41;10.93;;;2.53;;
73100;SDS011;61288;53.446;-2.266;2022-08-18T00:06:10;7.82;;;2.30;;
73100;SDS011;61288;53.446;-2.266;2022-08-18T00:08:36;8.75;;;2.67;;
73100;SDS011;61288;53.446;-2.266;2022-08-18T00:11:01;8.38;;;2.60;;
73100;SDS011;61288;53.446;-2.266;2022-08-18T00:13:28;9.73;;;2.47;;
73100;SDS011;61288;53.446;-2.266;2022-08-18T00:15:53;6.97;;;2.00;;
73100;SDS011;61288;53.446;-2.266;2022-08-18T00:18:19;8.02;;;2.30;;
73100;SDS011;61288;53.446;-2.266;2022-08-18T00:20:45;9.93;;;2.47;;
73100;SDS011;61288;53.446;-2.266;2022-08-18T00:23:10;7.90;;;2.25;;
73100;SDS011;61288;53.446;-2.266;2022-08-18T00:25:37;10.52;;;3.80;;
73100;SDS011;61288;53.446;-2.266;2022-08-18T00:28:03;7.93;;;2.25;;
73100;SDS011;61288;53.446;-2.266;2022-08-18T00:30:29;8.13;;;2.67;;
73100;SDS011;61288;53.446;-2.266;2022-08-18T00:32:56;11.68;;;2.65;;
73100;SDS011;61288;53.446;-2.266;2022-08-18T00:35:24;9.10;;;2.40;;
73100;SDS011;61288;53.446;-2.266;2022-08-18T00:37:53;8.15;;;2.13;;
73100;SDS011;61288;53.446;-2.266;2022-08-18T00:40:24;7.03;;;2.40;;
73100;SDS011;61288;53.446;-2.266;2022-08-18T00:42:56;7.93;;;2.40;;
73100;SDS011;61288;53.446;-2.266;2022-08-18T00:45:27;10.27;;;2.65;;
73100;SDS011;61288;53.446;-2.266;2022-08-18T00:47:57;6.57;;;2.20;;
73100;SDS011;61288;53.446;-2.266;2022-08-18T00:52:58;6.65;;;2.20;;
73100;SDS011;61288;53.446;-2.266;2022-08-18T00:55:27;9.23;;;2.60;;
73100;SDS011;61288;53.446;-2.266;2022-08-18T00:57:57;8.70;;;2.35;;
73100;SDS011;61288;53.446;-2.266;2022-08-18T01:00:27;6.93;;;2.35;;
73100;SDS011;61288;53.446;-2.266;2022-08-18T01:02:55;9.82;;;2.70;;
73100;SDS011;61288;53.446;-2.266;2022-08-18T01:05:34;7.47;;;2.50;;
73100;SDS011;61288;53.446;-2.266;2022-08-18T01:08:05;10.07;;;2.60;;
73100;SDS011;61288;53.446;-2.266;2022-08-18T01:10:36;8.77;;;2.60;;
73100;SDS011;61288;53.446;-2.266;2022-08-18T01:13:03;8.50;;;2.38;;
73100;SDS011;61288;53.446;-2.266;2022-08-18T01:15:29;8.05;;;2.53;;
73100;SDS011;61288;53.446;-2.266;2022-08-18T01:17:56;7.20;;;2.30;;
73100;SDS011;61288;53.446;-2.266;2022-08-18T01:20:44;7.40;;;2.13;;
73100;SDS011;61288;53.446;-2.266;2022-08-18T01:23:26;7.47;;;2.38;;
73100;SDS011;61288;53.446;-2.266;2022-08-18T01:25:54;10.00;;;2.60;;
73100;SDS011;61288;53.446;-2.266;2022-08-18T01:28:38;8.63;;;2.47;;
73100;SDS011;61288;53.446;-2.266;2022-08-18T01:31:05;9.38;;;2.90;;
73100;SDS011;61288;53.446;-2.266;2022-08-18T01:33:33;7.95;;;2.72;;
73100;SDS011;61288;53.446;-2.266;2022-08-18T01:36:08;7.68;;;2.83;;
73100;SDS011;61288;53.446;-2.266;2022-08-18T01:38:38;7.88;;;2.60;;
73100;SDS011;61288;53.446;-2.266;2022-08-18T01:41:05;9.07;;;2.78;;
73100;SDS011;61288;53.446;-2.266;2022-08-18T01:43:32;9.77;;;2.60;;
73100;SDS011;61288;53.446;-2.266;2022-08-18T01:46:00;11.35;;;2.88;;
73100;SDS011;61288;53.446;-2.266;2022-08-18T01:48:28;6.45;;;2.30;;
73100;SDS011;61288;53.446;-2.266;2022-08-18T01:50:59;10.25;;;2.38;;
73100;SDS011;61288;53.446;-2.266;2022-08-18T01:53:25;8.95;;;2.25;;
73100;SDS011;61288;53.446;-2.266;2022-08-18T01:55:51;9.80;;;2.60;;
73100;SDS011;61288;53.446;-2.266;2022-08-18T01:58:18;11.40;;;3.03;;
73100;SDS011;61288;53.446;-2.266;2022-08-18T02:00:52;9.05;;;2.60;;
73100;SDS011;61288;53.446;-2.266;2022-08-18T02:03:22;8.00;;;2.80;;
73100;SDS011;61288;53.446;-2.266;2022-08-18T02:05:54;11.18;;;3.00;;
73100;SDS011;61288;53.446;-2.266;2022-08-18T02:08:24;9.82;;;3.20;;
73100;SDS011;61288;53.446;-2.266;2022-08-18T02:10:50;9.40;;;2.90;;
73100;SDS011;61288;53.446;-2.266;2022-08-18T02:13:16;9.68;;;2.75;;
73100;SDS011;61288;53.446;-2.266;2022-08-18T02:15:44;9.65;;;2.97;;
73100;SDS011;61288;53.446;-2.266;2022-08-18T02:18:18;11.43;;;4.45;;
73100;SDS011;61288;53.446;-2.266;2022-08-18T02:20:46;10.15;;;3.60;;
73100;SDS011;61288;53.446;-2.266;2022-08-18T02:23:12;9.35;;;2.70;;
73100;SDS011;61288;53.446;-2.266;2022-08-18T02:25:38;13.82;;;3.92;;
73100;SDS011;61288;53.446;-2.266;2022-08-18T02:28:09;9.48;;;3.28;;
73100;SDS011;61288;53.446;-2.266;2022-08-18T02:33:06;10.65;;;3.50;;
73100;SDS011;61288;53.446;-2.266;2022-08-18T02:35:33;10.00;;;3.53;;
73100;SDS011;61288;53.446;-2.266;2022-08-18T02:37:59;9.68;;;3.40;;
73100;SDS011;61288;53.446;-2.266;2022-08-18T02:40:26;12.77;;;3.15;;
73100;SDS011;61288;53.446;-2.266;2022-08-18T02:42:53;10.50;;;4.03;;
73100;SDS011;61288;53.446;-2.266;2022-08-18T02:45:19;11.30;;;3.33;;
73100;SDS011;61288;53.446;-2.266;2022-08-18T02:47:53;9.70;;;3.30;;
73100;SDS011;61288;53.446;-2.266;2022-08-18T02:50:20;8.65;;;3.13;;
73100;SDS011;61288;53.446;-2.266;2022-08-18T02:52:47;10.68;;;2.90;;
73100;SDS011;61288;53.446;-2.266;2022-08-18T02:55:13;12.20;;;3.30;;
73100;SDS011;61288;53.446;-2.266;2022-08-18T02:57:46;11.00;;;3.38;;
73100;SDS011;61288;53.446;-2.266;2022-08-18T03:00:16;10.32;;;3.63;;
73100;SDS011;61288;53.446;-2.266;2022-08-18T03:02:49;10.63;;;3.85;;
73100;SDS011;61288;53.446;-2.266;2022-08-18T03:05:18;10.90;;;3.90;;
73100;SDS011;61288;53.446;-2.266;2022-08-18T03:07:44;13.05;;;4.07;;
73100;SDS011;61288;53.446;-2.266;2022-08-18T03:10:11;9.20;;;3.47;;
73100;SDS011;61288;53.446;-2.266;2022-08-18T03:12:40;14.32;;;3.95;;
73100;SDS011;61288;53.446;-2.266;2022-08-18T03:15:07;13.38;;;4.20;;
73100;SDS011;61288;53.446;-2.266;2022-08-18T03:17:36;12.10;;;3.90;;
73100;SDS011;61288;53.446;-2.266;2022-08-18T03:20:03;12.93;;;4.22;;
73100;SDS011;61288;53.446;-2.266;2022-08-18T03:22:29;12.43;;;3.88;;
73100;SDS011;61288;53.446;-2.266;2022-08-18T03:24:54;12.05;;;4.10;;
73100;SDS011;61288;53.446;-2.266;2022-08-18T03:27:20;15.70;;;5.10;;
73100;SDS011;61288;53.446;-2.266;2022-08-18T03:29:46;14.00;;;5.15;;
73100;SDS011;61288;53.446;-2.266;2022-08-18T03:32:11;11.95;;;4.57;;
73100;SDS011;61288;53.446;-2.266;2022-08-18T03:34:37;15.82;;;4.60;;
73100;SDS011;61288;53.446;-2.266;2022-08-18T03:37:03;11.25;;;4.20;;
73100;SDS011;61288;53.446;-2.266;2022-08-18T03:39:29;10.55;;;4.65;;
73100;SDS011;61288;53.446;-2.266;2022-08-18T03:41:55;14.48;;;4.65;;
73100;SDS011;61288;53.446;-2.266;2022-08-18T03:44:22;10.45;;;4.35;;
73100;SDS011;61288;53.446;-2.266;2022-08-18T03:46:49;11.90;;;4.35;;
73100;SDS011;61288;53.446;-2.266;2022-08-18T03:49:17;11.85;;;5.00;;
73100;SDS011;61288;53.446;-2.266;2022-08-18T03:51:44;13.20;;;4.50;;
73100;SDS011;61288;53.446;-2.266;2022-08-18T03:54:11;13.30;;;4.30;;
73100;SDS011;61288;53.446;-2.266;2022-08-18T03:56:38;13.82;;;4.30;;
73100;SDS011;61288;53.446;-2.266;2022-08-18T03:59:07;11.70;;;4.65;;
73100;SDS011;61288;53.446;-2.266;2022-08-18T04:01:37;14.50;;;4.20;;
73100;SDS011;61288;53.446;-2.266;2022-08-18T04:04:06;10.23;;;4.13;;
73100;SDS011;61288;53.446;-2.266;2022-08-18T04:06:40;11.02;;;4.00;;
73100;SDS011;61288;53.446;-2.266;2022-08-18T04:09:10;11.07;;;4.10;;
73100;SDS011;61288;53.446;-2.266;2022-08-18T04:11:38;11.13;;;3.92;;
73100;SDS011;61288;53.446;-2.266;2022-08-18T04:16:33;13.13;;;4.07;;
73100;SDS011;61288;53.446;-2.266;2022-08-18T04:19:00;9.23;;;3.65;;
73100;SDS011;61288;53.446;-2.266;2022-08-18T04:21:30;11.07;;;3.45;;
73100;SDS011;61288;53.446;-2.266;2022-08-18T04:23:57;10.52;;;3.40;;
73100;SDS011;61288;53.446;-2.266;2022-08-18T04:26:29;10.95;;;3.80;;
73100;SDS011;61288;53.446;-2.266;2022-08-18T04:29:07;10.63;;;3.35;;
73100;SDS011;61288;53.446;-2.266;2022-08-18T04:34:09;8.63;;;3.25;;
73100;SDS011;61288;53.446;-2.266;2022-08-18T04:36:37;9.85;;;3.58;;
73100;SDS011;61288;53.446;-2.266;2022-08-18T04:39:06;11.65;;;3.60;;
73100;SDS011;61288;53.446;-2.266;2022-08-18T04:41:34;8.80;;;3.60;;
73100;SDS011;61288;53.446;-2.266;2022-08-18T04:44:02;9.32;;;3.42;;
73100;SDS011;61288;53.446;-2.266;2022-08-18T04:46:29;11.60;;;3.00;;
73100;SDS011;61288;53.446;-2.266;2022-08-18T04:49:03;10.25;;;3.67;;
73100;SDS011;61288;53.446;-2.266;2022-08-18T04:51:33;9.57;;;3.20;;
73100;SDS011;61288;53.446;-2.266;2022-08-18T04:54:00;13.07;;;3.53;;
73100;SDS011;61288;53.446;-2.266;2022-08-18T04:56:26;10.07;;;3.42;;
73100;SDS011;61288;53.446;-2.266;2022-08-18T04:59:05;11.77;;;3.03;;
73100;SDS011;61288;53.446;-2.266;2022-08-18T05:01:36;11.38;;;3.42;;
73100;SDS011;61288;53.446;-2.266;2022-08-18T05:04:03;10.15;;;2.78;;
73100;SDS011;61288;53.446;-2.266;2022-08-18T05:06:29;10.30;;;3.03;;
73100;SDS011;61288;53.446;-2.266;2022-08-18T05:08:56;8.52;;;2.92;;
73100;SDS011;61288;53.446;-2.266;2022-08-18T05:11:24;9.52;;;3.00;;
73100;SDS011;61288;53.446;-2.266;2022-08-18T05:13:57;8.00;;;2.90;;
73100;SDS011;61288;53.446;-2.266;2022-08-18T05:16:24;12.98;;;3.55;;
73100;SDS011;61288;53.446;-2.266;2022-08-18T05:18:51;11.43;;;3.20;;
73100;SDS011;61288;53.446;-2.266;2022-08-18T05:21:17;8.32;;;3.03;;
73100;SDS011;61288;53.446;-2.266;2022-08-18T05:23:44;9.95;;;2.95;;
73100;SDS011;61288;53.446;-2.266;2022-08-18T05:26:12;8.52;;;2.85;;
73100;SDS011;61288;53.446;-2.266;2022-08-18T05:28:40;9.93;;;3.25;;
73100;SDS011;61288;53.446;-2.266;2022-08-18T05:31:10;11.70;;;3.40;;
73100;SDS011;61288;53.446;-2.266;2022-08-18T05:33:39;8.63;;;3.08;;
73100;SDS011;61288;53.446;-2.266;2022-08-18T05:36:08;10.07;;;3.15;;
73100;SDS011;61288;53.446;-2.266;2022-08-18T05:43:58;11.60;;;3.30;;
73100;SDS011;61288;53.446;-2.266;2022-08-18T05:46:31;8.52;;;3.28;;
73100;SDS011;61288;53.446;-2.266;2022-08-18T05:49:04;12.63;;;3.10;;
73100;SDS011;61288;53.446;-2.266;2022-08-18T05:51:32;10.85;;;3.20;;
73100;SDS011;61288;53.446;-2.266;2022-08-18T05:54:03;8.50;;;2.95;;
73100;SDS011;61288;53.446;-2.266;2022-08-18T05:56:51;8.77;;;2.70;;
73100;SDS011;61288;53.446;-2.266;2022-08-18T06:01:50;9.30;;;3.08;;
73100;SDS011;61288;53.446;-2.266;2022-08-18T06:07:04;9.50;;;3.15;;
73100;SDS011;61288;53.446;-2.266;2022-08-18T06:09:38;9.65;;;3.25;;
73100;SDS011;61288;53.446;-2.266;2022-08-18T06:12:18;10.93;;;3.65;;
73100;SDS011;61288;53.446;-2.266;2022-08-18T06:14:44;11.55;;;3.78;;
73100;SDS011;61288;53.446;-2.266;2022-08-18T06:17:20;11.02;;;3.50;;
73100;SDS011;61288;53.446;-2.266;2022-08-18T06:20:18;10.10;;;3.13;;
73100;SDS011;61288;53.446;-2.266;2022-08-18T06:23:00;11.55;;;3.45;;
73100;SDS011;61288;53.446;-2.266;2022-08-18T06:28:16;8.23;;;3.00;;
73100;SDS011;61288;53.446;-2.266;2022-08-18T06:35:53;9.95;;;2.85;;
73100;SDS011;61288;53.446;-2.266;2022-08-18T06:46:27;11.80;;;3.55;;
73100;SDS011;61288;53.446;-2.266;2022-08-18T06:48:59;11.70;;;2.72;;
73100;SDS011;61288;53.446;-2.266;2022-08-18T06:51:28;9.73;;;3.40;;
73100;SDS011;61288;53.446;-2.266;2022-08-18T06:53:56;12.85;;;3.60;;
73100;SDS011;61288;53.446;-2.266;2022-08-18T07:01:43;14.55;;;4.25;;
73100;SDS011;61288;53.446;-2.266;2022-08-18T07:04:12;11.18;;;3.92;;
73100;SDS011;61288;53.446;-2.266;2022-08-18T07:07:13;11.95;;;3.88;;
73100;SDS011;61288;53.446;-2.266;2022-08-18T07:10:00;9.73;;;3.20;;
73100;SDS011;61288;53.446;-2.266;2022-08-18T07:12:27;12.57;;;3.90;;
73100;SDS011;61288;53.446;-2.266;2022-08-18T07:14:58;11.65;;;3.72;;
73100;SDS011;61288;53.446;-2.266;2022-08-18T07:17:28;8.95;;;3.70;;
73100;SDS011;61288;53.446;-2.266;2022-08-18T07:20:08;9.30;;;3.50;;
73100;SDS011;61288;53.446;-2.266;2022-08-18T07:25:31;10.98;;;4.32;;
73100;SDS011;61288;53.446;-2.266;2022-08-18T07:28:02;12.85;;;4.03;;
73100;SDS011;61288;53.446;-2.266;2022-08-18T07:30:31;11.23;;;3.33;;
73100;SDS011;61288;53.446;-2.266;2022-08-18T07:33:19;15.10;;;5.65;;
73100;SDS011;61288;53.446;-2.266;2022-08-18T07:38:25;13.45;;;4.50;;
73100;SDS011;61288;53.446;-2.266;2022-08-18T07:40:58;14.20;;;4.35;;
73100;SDS011;61288;53.446;-2.266;2022-08-18T07:49:25;18.08;;;5.75;;
73100;SDS011;61288;53.446;-2.266;2022-08-18T07:52:10;13.70;;;5.32;;
73100;SDS011;61288;53.446;-2.266;2022-08-18T07:57:51;15.90;;;5.22;;
73100;SDS011;61288;53.446;-2.266;2022-08-18T08:00:31;17.80;;;6.10;;
73100;SDS011;61288;53.446;-2.266;2022-08-18T08:03:51;18.17;;;6.28;;
73100;SDS011;61288;53.446;-2.266;2022-08-18T08:06:10;16.60;;;6.15;;
73100;SDS011;61288;53.446;-2.266;2022-08-18T08:11:38;17.65;;;5.97;;
73100;SDS011;61288;53.446;-2.266;2022-08-18T08:16:50;20.83;;;6.53;;
73100;SDS011;61288;53.446;-2.266;2022-08-18T08:22:04;20.27;;;7.47;;
73100;SDS011;61288;53.446;-2.266;2022-08-18T08:27:24;20.30;;;7.32;;
73100;SDS011;61288;53.446;-2.266;2022-08-18T08:32:28;22.95;;;7.78;;
73100;SDS011;61288;53.446;-2.266;2022-08-18T08:37:27;19.20;;;6.60;;
73100;SDS011;61288;53.446;-2.266;2022-08-18T08:40:01;19.17;;;6.97;;
73100;SDS011;61288;53.446;-2.266;2022-08-18T08:45:21;18.50;;;6.82;;
73100;SDS011;61288;53.446;-2.266;2022-08-18T08:47:55;18.02;;;7.50;;
73100;SDS011;61288;53.446;-2.266;2022-08-18T08:50:27;18.80;;;7.63;;
73100;SDS011;61288;53.446;-2.266;2022-08-18T08:53:17;20.77;;;5.97;;
73100;SDS011;61288;53.446;-2.266;2022-08-18T08:55:45;19.50;;;7.00;;
73100;SDS011;61288;53.446;-2.266;2022-08-18T08:58:20;16.50;;;6.35;;
73100;SDS011;61288;53.446;-2.266;2022-08-18T09:01:05;17.50;;;6.30;;
73100;SDS011;61288;53.446;-2.266;2022-08-18T09:03:42;19.67;;;6.05;;
73100;SDS011;61288;53.446;-2.266;2022-08-18T09:09:45;19.55;;;6.40;;
73100;SDS011;61288;53.446;-2.266;2022-08-18T09:23:12;15.45;;;5.70;;
73100;SDS011;61288;53.446;-2.266;2022-08-18T09:25:46;13.55;;;5.70;;
73100;SDS011;61288;53.446;-2.266;2022-08-18T09:28:18;14.43;;;5.38;;
73100;SDS011;61288;53.446;-2.266;2022-08-18T09:33:33;16.38;;;5.80;;
73100;SDS011;61288;53.446;-2.266;2022-08-18T09:39:06;14.98;;;5.47;;
73100;SDS011;61288;53.446;-2.266;2022-08-18T09:42:47;12.18;;;4.97;;
73100;SDS011;61288;53.446;-2.266;2022-08-18T09:45:06;17.63;;;5.32;;
73100;SDS011;61288;53.446;-2.266;2022-08-18T09:57:28;14.57;;;5.35;;
73100;SDS011;61288;53.446;-2.266;2022-08-18T10:07:43;15.60;;;5.95;;
73100;SDS011;61288;53.446;-2.266;2022-08-18T10:15:58;15.48;;;5.90;;
73100;SDS011;61288;53.446;-2.266;2022-08-18T10:24:19;13.07;;;4.45;;
73100;SDS011;61288;53.446;-2.266;2022-08-18T10:39:56;11.95;;;5.15;;
73100;SDS011;61288;53.446;-2.266;2022-08-18T10:45:11;12.00;;;5.25;;
73100;SDS011;61288;53.446;-2.266;2022-08-18T10:47:43;10.80;;;4.93;;
73100;SDS011;61288;53.446;-2.266;2022-08-18T10:50:23;11.45;;;5.10;;
73100;SDS011;61288;53.446;-2.266;2022-08-18T11:06:18;12.82;;;5.38;;
73100;SDS011;61288;53.446;-2.266;2022-08-18T11:08:49;11.77;;;4.90;;
73100;SDS011;61288;53.446;-2.266;2022-08-18T11:11:23;13.15;;;5.65;;
73100;SDS011;61288;53.446;-2.266;2022-08-18T11:14:06;12.27;;;4.82;;
73100;SDS011;61288;53.446;-2.266;2022-08-18T11:19:18;12.25;;;5.55;;
73100;SDS011;61288;53.446;-2.266;2022-08-18T11:21:47;12.32;;;5.15;;
73100;SDS011;61288;53.446;-2.266;2022-08-18T11:24:26;11.35;;;5.28;;
73100;SDS011;61288;53.446;-2.266;2022-08-18T11:27:03;12.98;;;4.97;;
73100;SDS011;61288;53.446;-2.266;2022-08-18T11:29:33;12.38;;;5.38;;
73100;SDS011;61288;53.446;-2.266;2022-08-18T11:35:06;15.13;;;6.03;;
73100;SDS011;61288;53.446;-2.266;2022-08-18T11:45:20;12.35;;;5.32;;
73100;SDS011;61288;53.446;-2.266;2022-08-18T12:09:34;12.63;;;5.65;;
73100;SDS011;61288;53.446;-2.266;2022-08-18T12:14:57;14.50;;;6.35;;
73100;SDS011;61288;53.446;-2.266;2022-08-18T12:17:29;13.38;;;5.43;;
73100;SDS011;61288;53.446;-2.266;2022-08-18T12:19:56;12.68;;;5.35;;
73100;SDS011;61288;53.446;-2.266;2022-08-18T12:22:27;13.50;;;5.72;;
73100;SDS011;61288;53.446;-2.266;2022-08-18T12:24:55;10.90;;;4.65;;
73100;SDS011;61288;53.446;-2.266;2022-08-18T12:27:22;11.10;;;5.07;;
73100;SDS011;61288;53.446;-2.266;2022-08-18T12:29:49;10.40;;;5.00;;
73100;SDS011;61288;53.446;-2.266;2022-08-18T12:32:18;11.65;;;4.93;;
73100;SDS011;61288;53.446;-2.266;2022-08-18T12:34:46;11.88;;;4.88;;
73100;SDS011;61288;53.446;-2.266;2022-08-18T12:37:14;12.35;;;5.30;;
73100;SDS011;61288;53.446;-2.266;2022-08-18T12:39:42;10.95;;;4.72;;
73100;SDS011;61288;53.446;-2.266;2022-08-18T12:42:08;11.32;;;4.93;;
73100;SDS011;61288;53.446;-2.266;2022-08-18T12:44:35;11.48;;;4.93;;
73100;SDS011;61288;53.446;-2.266;2022-08-18T12:47:01;10.73;;;4.80;;
73100;SDS011;61288;53.446;-2.266;2022-08-18T12:49:36;8.75;;;4.00;;
73100;SDS011;61288;53.446;-2.266;2022-08-18T12:52:02;11.77;;;4.13;;
73100;SDS011;61288;53.446;-2.266;2022-08-18T12:54:29;9.45;;;4.07;;
73100;SDS011;61288;53.446;-2.266;2022-08-18T12:56:58;13.10;;;4.47;;
73100;SDS011;61288;53.446;-2.266;2022-08-18T12:59:24;11.07;;;4.78;;
73100;SDS011;61288;53.446;-2.266;2022-08-18T13:01:50;10.60;;;4.13;;
73100;SDS011;61288;53.446;-2.266;2022-08-18T13:04:17;10.48;;;4.60;;
73100;SDS011;61288;53.446;-2.266;2022-08-18T13:06:47;10.05;;;4.05;;
73100;SDS011;61288;53.446;-2.266;2022-08-18T13:09:15;9.60;;;4.47;;
73100;SDS011;61288;53.446;-2.266;2022-08-18T13:11:41;10.07;;;4.70;;
73100;SDS011;61288;53.446;-2.266;2022-08-18T13:14:06;10.25;;;4.95;;
73100;SDS011;61288;53.446;-2.266;2022-08-18T13:16:34;10.70;;;4.60;;
73100;SDS011;61288;53.446;-2.266;2022-08-18T13:19:03;11.32;;;4.72;;
73100;SDS011;61288;53.446;-2.266;2022-08-18T13:21:29;10.68;;;4.20;;
73100;SDS011;61288;53.446;-2.266;2022-08-18T13:24:03;9.63;;;3.78;;
73100;SDS011;61288;53.446;-2.266;2022-08-18T13:26:40;8.98;;;3.83;;
73100;SDS011;61288;53.446;-2.266;2022-08-18T13:29:07;9.82;;;3.92;;
73100;SDS011;61288;53.446;-2.266;2022-08-18T13:31:34;10.88;;;4.05;;
73100;SDS011;61288;53.446;-2.266;2022-08-18T13:34:02;9.10;;;3.72;;
73100;SDS011;61288;53.446;-2.266;2022-08-18T13:36:29;8.40;;;3.65;;
73100;SDS011;61288;53.446;-2.266;2022-08-18T13:39:09;9.88;;;3.60;;
73100;SDS011;61288;53.446;-2.266;2022-08-18T13:41:39;10.55;;;3.67;;
73100;SDS011;61288;53.446;-2.266;2022-08-18T13:44:08;10.23;;;3.90;;
73100;SDS011;61288;53.446;-2.266;2022-08-18T13:46:37;9.65;;;3.72;;
73100;SDS011;61288;53.446;-2.266;2022-08-18T13:49:09;8.75;;;4.00;;
73100;SDS011;61288;53.446;-2.266;2022-08-18T13:51:42;9.52;;;4.35;;
73100;SDS011;61288;53.446;-2.266;2022-08-18T13:54:11;10.27;;;4.45;;
73100;SDS011;61288;53.446;-2.266;2022-08-18T13:56:47;10.98;;;4.50;;
73100;SDS011;61288;53.446;-2.266;2022-08-18T13:59:14;11.13;;;4.20;;
73100;SDS011;61288;53.446;-2.266;2022-08-18T14:01:41;12.82;;;4.43;;
73100;SDS011;61288;53.446;-2.266;2022-08-18T14:04:07;10.27;;;4.40;;
73100;SDS011;61288;53.446;-2.266;2022-08-18T14:06:33;10.95;;;4.40;;
73100;SDS011;61288;53.446;-2.266;2022-08-18T14:08:59;10.35;;;4.38;;
73100;SDS011;61288;53.446;-2.266;2022-08-18T14:11:26;9.20;;;3.78;;
73100;SDS011;61288;53.446;-2.266;2022-08-18T14:13:54;9.82;;;3.72;;
73100;SDS011;61288;53.446;-2.266;2022-08-18T14:16:20;9.18;;;3.45;;
73100;SDS011;61288;53.446;-2.266;2022-08-18T14:18:46;8.35;;;2.97;;
73100;SDS011;61288;53.446;-2.266;2022-08-18T14:21:33;7.07;;;2.53;;
73100;SDS011;61288;53.446;-2.266;2022-08-18T14:24:19;6.88;;;2.60;;
73100;SDS011;61288;53.446;-2.266;2022-08-18T14:27:03;7.63;;;2.85;;
73100;SDS011;61288;53.446;-2.266;2022-08-18T14:29:30;7.10;;;2.90;;
73100;SDS011;61288;53.446;-2.266;2022-08-18T14:31:55;9.57;;;3.00;;
73100;SDS011;61288;53.446;-2.266;2022-08-18T14:34:22;8.05;;;2.97;;
73100;SDS011;61288;53.446;-2.266;2022-08-18T14:36:47;9.80;;;2.70;;
73100;SDS011;61288;53.446;-2.266;2022-08-18T14:39:13;8.30;;;2.75;;
73100;SDS011;61288;53.446;-2.266;2022-08-18T14:41:39;8.00;;;2.28;;
73100;SDS011;61288;53.446;-2.266;2022-08-18T14:44:04;5.90;;;2.30;;
73100;SDS011;61288;53.446;-2.266;2022-08-18T14:46:31;7.28;;;2.15;;
73100;SDS011;61288;53.446;-2.266;2022-08-18T14:48:56;6.13;;;2.40;;
73100;SDS011;61288;53.446;-2.266;2022-08-18T14:51:23;5.70;;;2.00;;
73100;SDS011;61288;53.446;-2.266;2022-08-18T14:53:50;5.43;;;2.30;;
73100;SDS011;61288;53.446;-2.266;2022-08-18T14:56:16;7.90;;;2.30;;
73100;SDS011;61288;53.446;-2.266;2022-08-18T14:58:43;6.53;;;2.35;;
73100;SDS011;61288;53.446;-2.266;2022-08-18T15:01:09;8.73;;;2.30;;
73100;SDS011;61288;53.446;-2.266;2022-08-18T15:03:37;6.82;;;2.58;;
73100;SDS011;61288;53.446;-2.266;2022-08-18T15:06:04;8.57;;;2.90;;
73100;SDS011;61288;53.446;-2.266;2022-08-18T15:08:32;6.85;;;2.72;;
73100;SDS011;61288;53.446;-2.266;2022-08-18T15:10:59;8.90;;;3.10;;
73100;SDS011;61288;53.446;-2.266;2022-08-18T15:13:25;8.48;;;2.90;;
73100;SDS011;61288;53.446;-2.266;2022-08-18T15:15:50;8.77;;;3.15;;
73100;SDS011;61288;53.446;-2.266;2022-08-18T15:18:17;7.32;;;3.13;;
73100;SDS011;61288;53.446;-2.266;2022-08-18T15:20:43;9.05;;;3.20;;
73100;SDS011;61288;53.446;-2.266;2022-08-18T15:23:28;7.10;;;2.90;;
73100;SDS011;61288;53.446;-2.266;2022-08-18T15:26:12;8.85;;;3.00;;
73100;SDS011;61288;53.446;-2.266;2022-08-18T15:28:45;7.93;;;3.28;;
73100;SDS011;61288;53.446;-2.266;2022-08-18T15:31:11;7.55;;;2.70;;
73100;SDS011;61288;53.446;-2.266;2022-08-18T15:33:36;8.82;;;3.08;;
73100;SDS011;61288;53.446;-2.266;2022-08-18T15:36:02;8.40;;;2.97;;
73100;SDS011;61288;53.446;-2.266;2022-08-18T15:38:28;6.05;;;2.60;;
73100;SDS011;61288;53.446;-2.266;2022-08-18T15:40:55;7.53;;;3.08;;
73100;SDS011;61288;53.446;-2.266;2022-08-18T15:43:34;7.05;;;2.85;;
73100;SDS011;61288;53.446;-2.266;2022-08-18T15:46:01;8.88;;;2.97;;
73100;SDS011;61288;53.446;-2.266;2022-08-18T15:48:27;7.55;;;2.45;;
73100;SDS011;61288;53.446;-2.266;2022-08-18T15:50:54;8.25;;;3.00;;
73100;SDS011;61288;53.446;-2.266;2022-08-18T15:53:21;8.45;;;3.00;;
73100;SDS011;61288;53.446;-2.266;2022-08-18T15:55:49;8.20;;;3.22;;
73100;SDS011;61288;53.446;-2.266;2022-08-18T15:58:15;9.88;;;3.17;;
73100;SDS011;61288;53.446;-2.266;2022-08-18T16:00:42;7.80;;;2.83;;
73100;SDS011;61288;53.446;-2.266;2022-08-18T16:03:10;7.03;;;2.72;;
73100;SDS011;61288;53.446;-2.266;2022-08-18T16:05:40;8.77;;;3.35;;
73100;SDS011;61288;53.446;-2.266;2022-08-18T16:08:11;9.07;;;3.00;;
73100;SDS011;61288;53.446;-2.266;2022-08-18T16:10:42;7.28;;;2.85;;
73100;SDS011;61288;53.446;-2.266;2022-08-18T16:13:07;10.02;;;3.13;;
73100;SDS011;61288;53.446;-2.266;2022-08-18T16:15:37;8.52;;;3.05;;
73100;SDS011;61288;53.446;-2.266;2022-08-18T16:18:06;8.93;;;2.80;;
73100;SDS011;61288;53.446;-2.266;2022-08-18T16:20:33;8.25;;;3.08;;
73100;SDS011;61288;53.446;-2.266;2022-08-18T16:23:00;10.73;;;3.13;;
73100;SDS011;61288;53.446;-2.266;2022-08-18T16:25:26;7.80;;;3.20;;
73100;SDS011;61288;53.446;-2.266;2022-08-18T16:27:52;8.88;;;2.83;;
73100;SDS011;61288;53.446;-2.266;2022-08-18T16:30:24;8.20;;;2.97;;
73100;SDS011;61288;53.446;-2.266;2022-08-18T16:32:51;7.45;;;3.17;;
73100;SDS011;61288;53.446;-2.266;2022-08-18T16:35:18;7.30;;;2.78;;
73100;SDS011;61288;53.446;-2.266;2022-08-18T16:37:45;9.73;;;2.70;;
73100;SDS011;61288;53.446;-2.266;2022-08-18T16:40:14;7.65;;;2.90;;
73100;SDS011;61288;53.446;-2.266;2022-08-18T16:42:41;6.63;;;2.75;;
73100;SDS011;61288;53.446;-2.266;2022-08-18T16:45:07;7.22;;;2.72;;
73100;SDS011;61288;53.446;-2.266;2022-08-18T17:01:10;9.07;;;2.60;;
73100;SDS011;61288;53.446;-2.266;2022-08-18T17:03:54;8.02;;;2.60;;
73100;SDS011;61288;53.446;-2.266;2022-08-18T17:09:02;8.98;;;2.90;;
73100;SDS011;61288;53.446;-2.266;2022-08-18T17:11:30;8.32;;;3.03;;
73100;SDS011;61288;53.446;-2.266;2022-08-18T17:13:56;7.40;;;3.13;;
73100;SDS011;61288;53.446;-2.266;2022-08-18T17:16:24;6.50;;;2.80;;
73100;SDS011;61288;53.446;-2.266;2022-08-18T17:18:52;7.45;;;2.67;;
73100;SDS011;61288;53.446;-2.266;2022-08-18T17:21:20;8.75;;;2.92;;
73100;SDS011;61288;53.446;-2.266;2022-08-18T17:23:48;9.13;;;3.10;;
73100;SDS011;61288;53.446;-2.266;2022-08-18T17:26:35;8.18;;;3.08;;
73100;SDS011;61288;53.446;-2.266;2022-08-18T17:29:19;8.68;;;3.03;;
73100;SDS011;61288;53.446;-2.266;2022-08-18T17:32:07;10.18;;;2.83;;
73100;SDS011;61288;53.446;-2.266;2022-08-18T17:34:38;9.07;;;3.30;;
73100;SDS011;61288;53.446;-2.266;2022-08-18T17:37:08;7.28;;;2.65;;
73100;SDS011;61288;53.446;-2.266;2022-08-18T17:40:25;8.60;;;3.15;;
73100;SDS011;61288;53.446;-2.266;2022-08-18T17:42:37;5.80;;;2.30;;
73100;SDS011;61288;53.446;-2.266;2022-08-18T17:45:04;5.45;;;2.33;;
73100;SDS011;61288;53.446;-2.266;2022-08-18T17:50:36;7.15;;;2.58;;
73100;SDS011;61288;53.446;-2.266;2022-08-18T17:53:29;10.18;;;2.42;;
73100;SDS011;61288;53.446;-2.266;2022-08-18T17:56:15;8.27;;;2.33;;
73100;SDS011;61288;53.446;-2.266;2022-08-18T18:01:22;7.30;;;2.55;;
73100;SDS011;61288;53.446;-2.266;2022-08-18T18:03:50;8.75;;;2.50;;
73100;SDS011;61288;53.446;-2.266;2022-08-18T18:06:23;5.03;;;1.98;;
73100;SDS011;61288;53.446;-2.266;2022-08-18T18:09:33;7.25;;;2.50;;
73100;SDS011;61288;53.446;-2.266;2022-08-18T18:11:53;7.68;;;2.42;;
73100;SDS011;61288;53.446;-2.266;2022-08-18T18:14:39;8.38;;;2.30;;
73100;SDS011;61288;53.446;-2.266;2022-08-18T18:17:18;6.05;;;2.30;;
73100;SDS011;61288;53.446;-2.266;2022-08-18T18:19:53;6.38;;;2.42;;
73100;SDS011;61288;53.446;-2.266;2022-08-18T18:22:37;8.00;;;2.38;;